sensor_id;sensor_type;location;lat;lon;timestamp;pressure;altitude;pressure_sealevel;temperature;humidity
9035;BME280;4552;43.422;24.592;2023-02-02T00:02:02;99946.88;;;5.53;69.16
9035;BME280;4552;43.422;24.592;2023-02-02T00:04:34;99972.84;;;5.56;70.04
9035;BME280;4552;43.422;24.592;2023-02-02T00:07:05;99963.25;;;5.45;70.89
9035;BME280;4552;43.422;24.592;2023-02-02T00:09:46;99980.63;;;5.53;70.92
9035;BME280;4552;43.422;24.592;2023-02-02T00:12:26;99965.81;;;5.43;71.42
9035;BME280;4552;43.422;24.592;2023-02-02T00:14:54;99991.88;;;5.58;71.70
9035;BME280;4552;43.422;24.592;2023-02-02T00:17:23;99988.53;;;5.71;71.10
9035;BME280;4552;43.422;24.592;2023-02-02T00:19:54;99971.06;;;5.49;71.29
9035;BME280;4552;43.422;24.592;2023-02-02T00:22:23;99974.47;;;5.39;72.43
9035;BME280;4552;43.422;24.592;2023-02-02T00:25:02;99977.03;;;5.38;72.39
9035;BME280;4552;43.422;24.592;2023-02-02T00:27:38;99981.41;;;5.46;72.74
9035;BME280;4552;43.422;24.592;2023-02-02T00:30:07;99981.44;;;5.49;72.98
9035;BME280;4552;43.422;24.592;2023-02-02T00:32:37;99956.28;;;5.36;72.90
9035;BME280;4552;43.422;24.592;2023-02-02T00:35:07;99973.59;;;5.40;73.58
9035;BME280;4552;43.422;24.592;2023-02-02T00:37:39;99957.00;;;5.18;73.97
9035;BME280;4552;43.422;24.592;2023-02-02T00:40:12;99953.44;;;5.09;74.79
9035;BME280;4552;43.422;24.592;2023-02-02T00:42:52;99953.41;;;5.06;75.37
9035;BME280;4552;43.422;24.592;2023-02-02T00:45:19;99932.59;;;4.98;75.34
9035;BME280;4552;43.422;24.592;2023-02-02T00:47:47;99923.06;;;4.91;75.48
9035;BME280;4552;43.422;24.592;2023-02-02T00:50:17;99900.59;;;4.93;75.43
9035;BME280;4552;43.422;24.592;2023-02-02T00:52:45;99931.81;;;5.05;75.63
9035;BME280;4552;43.422;24.592;2023-02-02T00:55:13;99917.00;;;4.91;76.43
9035;BME280;4552;43.422;24.592;2023-02-02T00:57:40;99934.34;;;4.96;77.09
9035;BME280;4552;43.422;24.592;2023-02-02T01:00:23;99939.56;;;5.01;77.53
9035;BME280;4552;43.422;24.592;2023-02-02T01:02:52;99924.75;;;4.88;77.54
9035;BME280;4552;43.422;24.592;2023-02-02T01:05:20;99935.19;;;4.98;77.40
9035;BME280;4552;43.422;24.592;2023-02-02T01:07:49;99921.31;;;4.90;77.53
9035;BME280;4552;43.422;24.592;2023-02-02T01:10:18;99927.41;;;4.97;77.28
9035;BME280;4552;43.422;24.592;2023-02-02T01:12:45;99940.50;;;5.12;77.36
9035;BME280;4552;43.422;24.592;2023-02-02T01:15:23;99909.28;;;5.00;76.98
9035;BME280;4552;43.422;24.592;2023-02-02T01:17:51;99947.41;;;5.08;77.83
9035;BME280;4552;43.422;24.592;2023-02-02T01:20:19;99923.06;;;4.91;78.13
9035;BME280;4552;43.422;24.592;2023-02-02T01:22:47;99938.66;;;4.97;78.81
9035;BME280;4552;43.422;24.592;2023-02-02T01:25:16;99943.78;;;4.90;79.10
9035;BME280;4552;43.422;24.592;2023-02-02T01:27:44;99947.22;;;4.86;79.37
9035;BME280;4552;43.422;24.592;2023-02-02T01:30:13;99943.69;;;4.81;80.23
9035;BME280;4552;43.422;24.592;2023-02-02T01:32:40;99951.53;;;4.87;80.15
9035;BME280;4552;43.422;24.592;2023-02-02T01:35:08;99960.25;;;4.95;80.55
9035;BME280;4552;43.422;24.592;2023-02-02T01:37:37;99946.44;;;4.99;80.83
9035;BME280;4552;43.422;24.592;2023-02-02T01:40:06;99940.34;;;4.95;80.78
9035;BME280;4552;43.422;24.592;2023-02-02T01:42:33;99954.25;;;5.02;80.97
9035;BME280;4552;43.422;24.592;2023-02-02T01:45:15;99936.84;;;4.84;81.77
9035;BME280;4552;43.422;24.592;2023-02-02T01:47:49;99957.69;;;4.98;81.51
9035;BME280;4552;43.422;24.592;2023-02-02T01:50:19;99956.00;;;5.04;81.64
9035;BME280;4552;43.422;24.592;2023-02-02T01:52:48;99956.84;;;5.02;82.01
9035;BME280;4552;43.422;24.592;2023-02-02T01:55:18;99956.03;;;5.10;81.27
9035;BME280;4552;43.422;24.592;2023-02-02T01:57:50;99924.81;;;4.95;81.42
9035;BME280;4552;43.422;24.592;2023-02-02T02:00:21;99959.53;;;5.12;81.01
9035;BME280;4552;43.422;24.592;2023-02-02T02:02:53;99959.47;;;5.06;81.58
9035;BME280;4552;43.422;24.592;2023-02-02T02:05:28;99938.66;;;4.97;81.14
9035;BME280;4552;43.422;24.592;2023-02-02T02:08:02;99927.41;;;4.97;80.74
9035;BME280;4552;43.422;24.592;2023-02-02T02:10:32;99924.84;;;5.01;80.53
9035;BME280;4552;43.422;24.592;2023-02-02T02:13:05;99953.56;;;5.21;80.23
9035;BME280;4552;43.422;24.592;2023-02-02T02:15:39;99946.53;;;5.08;80.27
9035;BME280;4552;43.422;24.592;2023-02-02T02:18:34;99952.63;;;5.14;80.22
9035;BME280;4552;43.422;24.592;2023-02-02T02:34:46;99942.22;;;5.08;80.67
9035;BME280;4552;43.422;24.592;2023-02-02T02:37:26;99912.72;;;4.96;79.93
9035;BME280;4552;43.422;24.592;2023-02-02T02:39:59;99945.66;;;5.07;80.60
9035;BME280;4552;43.422;24.592;2023-02-02T02:42:32;99938.72;;;5.03;80.12
9035;BME280;4552;43.422;24.592;2023-02-02T02:45:07;99936.13;;;5.05;79.50
9035;BME280;4552;43.422;24.592;2023-02-02T02:47:35;99945.75;;;5.18;79.72
9035;BME280;4552;43.422;24.592;2023-02-02T02:50:09;99930.97;;;5.08;79.33
9035;BME280;4552;43.422;24.592;2023-02-02T02:52:39;99919.69;;;5.03;79.63
9035;BME280;4552;43.422;24.592;2023-02-02T02:55:34;99935.25;;;5.06;80.15
9035;BME280;4552;43.422;24.592;2023-02-02T02:58:43;99933.44;;;4.93;81.41
9035;BME280;4552;43.422;24.592;2023-02-02T03:01:18;99932.47;;;4.82;82.00
9035;BME280;4552;43.422;24.592;2023-02-02T03:04:20;99930.75;;;4.81;82.25
9035;BME280;4552;43.422;24.592;2023-02-02T03:06:56;99941.22;;;4.93;81.62
9035;BME280;4552;43.422;24.592;2023-02-02T03:09:31;99939.50;;;4.93;80.94
9035;BME280;4552;43.422;24.592;2023-02-02T03:12:07;99938.59;;;4.91;80.47
9035;BME280;4552;43.422;24.592;2023-02-02T03:14:37;99932.53;;;4.91;80.72
9035;BME280;4552;43.422;24.592;2023-02-02T03:17:06;99941.16;;;4.87;80.84
9035;BME280;4552;43.422;24.592;2023-02-02T03:19:38;99936.03;;;4.91;80.36
9035;BME280;4552;43.422;24.592;2023-02-02T03:22:12;99931.72;;;4.92;79.65
9035;BME280;4552;43.422;24.592;2023-02-02T03:28:11;99926.44;;;4.83;80.04
9035;BME280;4552;43.422;24.592;2023-02-02T03:30:43;99929.06;;;4.86;79.76
9035;BME280;4552;43.422;24.592;2023-02-02T03:33:20;99943.03;;;5.06;78.29
9035;BME280;4552;43.422;24.592;2023-02-02T03:35:52;99918.75;;;4.93;77.98
9035;BME280;4552;43.422;24.592;2023-02-02T03:38:51;99925.78;;;5.08;77.28
9035;BME280;4552;43.422;24.592;2023-02-02T03:41:19;99950.06;;;5.17;77.19
9035;BME280;4552;43.422;24.592;2023-02-02T03:43:52;99911.91;;;5.04;76.46
9035;BME280;4552;43.422;24.592;2023-02-02T03:46:22;99938.84;;;5.20;76.51
9035;BME280;4552;43.422;24.592;2023-02-02T03:49:07;99933.66;;;5.20;76.28
9035;BME280;4552;43.422;24.592;2023-02-02T03:51:42;99952.75;;;5.28;75.19
9035;BME280;4552;43.422;24.592;2023-02-02T03:54:15;99933.66;;;5.20;74.56
9035;BME280;4552;43.422;24.592;2023-02-02T03:57:04;99958.91;;;5.42;73.43
9035;BME280;4552;43.422;24.592;2023-02-02T03:59:33;99961.63;;;5.59;72.08
9035;BME280;4552;43.422;24.592;2023-02-02T04:02:27;99952.97;;;5.63;71.18
9035;BME280;4552;43.422;24.592;2023-02-02T04:05:28;99961.66;;;5.65;71.18
9035;BME280;4552;43.422;24.592;2023-02-02T04:07:58;99959.03;;;5.59;70.65
9035;BME280;4552;43.422;24.592;2023-02-02T04:10:30;99970.31;;;5.64;70.35
9035;BME280;4552;43.422;24.592;2023-02-02T04:13:18;99970.25;;;5.56;70.21
9035;BME280;4552;43.422;24.592;2023-02-02T04:15:56;99969.41;;;5.60;70.01
9035;BME280;4552;43.422;24.592;2023-02-02T04:18:24;99952.88;;;5.49;70.32
9035;BME280;4552;43.422;24.592;2023-02-02T04:21:02;99965.88;;;5.52;69.82
9035;BME280;4552;43.422;24.592;2023-02-02T04:23:33;99942.44;;;5.40;70.29
9035;BME280;4552;43.422;24.592;2023-02-02T04:26:16;99945.06;;;5.43;70.51
9035;BME280;4552;43.422;24.592;2023-02-02T04:28:44;99976.25;;;5.49;71.04
9035;BME280;4552;43.422;24.592;2023-02-02T04:31:11;99972.81;;;5.50;70.75
9035;BME280;4552;43.422;24.592;2023-02-02T04:33:43;99935.47;;;5.28;70.87
9035;BME280;4552;43.422;24.592;2023-02-02T04:36:24;99977.16;;;5.53;71.29
9035;BME280;4552;43.422;24.592;2023-02-02T04:39:04;99966.75;;;5.53;70.73
9035;BME280;4552;43.422;24.592;2023-02-02T04:41:46;99961.41;;;5.28;71.02
9035;BME280;4552;43.422;24.592;2023-02-02T04:44:18;99986.63;;;5.48;70.72
9035;BME280;4552;43.422;24.592;2023-02-02T04:47:05;99967.50;;;5.35;71.15
9035;BME280;4552;43.422;24.592;2023-02-02T04:49:38;99976.13;;;5.31;71.08
9035;BME280;4552;43.422;24.592;2023-02-02T04:52:05;99968.31;;;5.28;70.86
9035;BME280;4552;43.422;24.592;2023-02-02T04:54:37;99946.59;;;5.17;70.59
9035;BME280;4552;43.422;24.592;2023-02-02T04:57:20;99981.34;;;5.37;70.27
9035;BME280;4552;43.422;24.592;2023-02-02T04:59:56;99962.22;;;5.26;70.15
9035;BME280;4552;43.422;24.592;2023-02-02T05:02:24;99978.69;;;5.29;70.28
9035;BME280;4552;43.422;24.592;2023-02-02T05:05:07;99987.41;;;5.38;69.56
9035;BME280;4552;43.422;24.592;2023-02-02T05:07:40;100009.19;;;5.53;69.66
9035;BME280;4552;43.422;24.592;2023-02-02T05:10:11;100014.34;;;5.50;69.29
9035;BME280;4552;43.422;24.592;2023-02-02T05:12:41;99981.31;;;5.32;69.36
9035;BME280;4552;43.422;24.592;2023-02-02T05:15:09;99983.09;;;5.41;69.84
9035;BME280;4552;43.422;24.592;2023-02-02T05:17:56;100004.03;;;5.59;69.43
9035;BME280;4552;43.422;24.592;2023-02-02T05:20:28;99987.50;;;5.48;68.91
9035;BME280;4552;43.422;24.592;2023-02-02T05:22:55;99987.59;;;5.63;68.96
9035;BME280;4552;43.422;24.592;2023-02-02T05:25:32;99999.75;;;5.69;68.81
9035;BME280;4552;43.422;24.592;2023-02-02T05:28:04;99991.94;;;5.64;68.70
9035;BME280;4552;43.422;24.592;2023-02-02T05:30:32;99998.03;;;5.72;68.90
9035;BME280;4552;43.422;24.592;2023-02-02T05:33:12;99988.47;;;5.62;68.97
9035;BME280;4552;43.422;24.592;2023-02-02T05:36:04;100013.56;;;5.63;69.79
9035;BME280;4552;43.422;24.592;2023-02-02T05:38:34;99976.16;;;5.37;69.20
9035;BME280;4552;43.422;24.592;2023-02-02T05:41:11;100017.78;;;5.49;69.51
9035;BME280;4552;43.422;24.592;2023-02-02T05:44:12;100009.06;;;5.41;69.60
9035;BME280;4552;43.422;24.592;2023-02-02T05:46:55;99995.25;;;5.42;68.94
9035;BME280;4552;43.422;24.592;2023-02-02T05:49:24;100019.50;;;5.47;68.25
9035;BME280;4552;43.422;24.592;2023-02-02T05:51:55;99993.50;;;5.44;67.76
9035;BME280;4552;43.422;24.592;2023-02-02T05:54:41;100004.03;;;5.59;65.95
9035;BME280;4552;43.422;24.592;2023-02-02T05:57:15;100023.31;;;5.88;65.26
9035;BME280;4552;43.422;24.592;2023-02-02T06:00:03;99997.13;;;5.66;65.61
9035;BME280;4552;43.422;24.592;2023-02-02T06:02:32;100011.91;;;5.74;66.20
9035;BME280;4552;43.422;24.592;2023-02-02T06:05:00;100004.03;;;5.62;66.54
9035;BME280;4552;43.422;24.592;2023-02-02T06:07:30;100022.28;;;5.70;66.49
9035;BME280;4552;43.422;24.592;2023-02-02T06:10:04;100006.69;;;5.68;66.25
9035;BME280;4552;43.422;24.592;2023-02-02T06:12:35;100017.22;;;5.85;65.57
9035;BME280;4552;43.422;24.592;2023-02-02T06:15:13;100006.84;;;5.88;64.98
9035;BME280;4552;43.422;24.592;2023-02-02T06:17:43;100007.69;;;5.84;64.74
9035;BME280;4552;43.422;24.592;2023-02-02T06:20:12;99987.63;;;5.69;65.30
9035;BME280;4552;43.422;24.592;2023-02-02T06:22:39;99999.03;;;5.83;64.10
9035;BME280;4552;43.422;24.592;2023-02-02T06:25:07;100023.31;;;5.88;64.34
9035;BME280;4552;43.422;24.592;2023-02-02T06:27:34;100025.03;;;5.92;64.37
9035;BME280;4552;43.422;24.592;2023-02-02T06:30:05;100037.19;;;5.99;64.12
9035;BME280;4552;43.422;24.592;2023-02-02T06:32:34;100031.16;;;5.99;63.97
9035;BME280;4552;43.422;24.592;2023-02-02T06:35:04;100018.19;;;6.03;63.08
9035;BME280;4552;43.422;24.592;2023-02-02T06:37:36;100020.78;;;6.02;63.57
9035;BME280;4552;43.422;24.592;2023-02-02T06:40:11;100019.88;;;5.98;63.41
9035;BME280;4552;43.422;24.592;2023-02-02T06:42:39;100029.44;;;6.08;63.23
9035;BME280;4552;43.422;24.592;2023-02-02T06:45:14;100031.19;;;6.08;63.08
9035;BME280;4552;43.422;24.592;2023-02-02T06:47:46;100030.31;;;6.04;62.97
9035;BME280;4552;43.422;24.592;2023-02-02T06:50:17;100024.16;;;5.90;62.66
9035;BME280;4552;43.422;24.592;2023-02-02T06:52:48;100047.69;;;6.11;62.69
9035;BME280;4552;43.422;24.592;2023-02-02T06:55:18;100055.53;;;6.22;62.37
9035;BME280;4552;43.422;24.592;2023-02-02T06:57:47;100032.91;;;6.07;62.14
9035;BME280;4552;43.422;24.592;2023-02-02T07:00:18;100056.44;;;6.31;62.27
9035;BME280;4552;43.422;24.592;2023-02-02T07:03:00;100063.41;;;6.35;62.19
9035;BME280;4552;43.422;24.592;2023-02-02T07:05:31;100061.75;;;6.52;61.51
9035;BME280;4552;43.422;24.592;2023-02-02T07:07:58;100070.53;;;6.83;60.61
9035;BME280;4552;43.422;24.592;2023-02-02T07:10:35;100043.72;;;7.05;58.78
9035;BME280;4552;43.422;24.592;2023-02-02T07:13:02;100066.34;;;7.45;58.17
9035;BME280;4552;43.422;24.592;2023-02-02T07:15:32;100062.00;;;7.55;57.57
9035;BME280;4552;43.422;24.592;2023-02-02T07:18:01;100035.97;;;7.52;57.00
9035;BME280;4552;43.422;24.592;2023-02-02T07:20:28;100017.72;;;7.55;56.37
9035;BME280;4552;43.422;24.592;2023-02-02T07:22:56;100027.28;;;7.53;56.27
9035;BME280;4552;43.422;24.592;2023-02-02T07:25:23;100017.72;;;7.59;55.82
9035;BME280;4552;43.422;24.592;2023-02-02T07:27:51;100042.88;;;7.80;55.18
9035;BME280;4552;43.422;24.592;2023-02-02T07:30:19;100043.75;;;7.83;54.67
9035;BME280;4552;43.422;24.592;2023-02-02T07:32:49;100048.94;;;7.92;55.35
9035;BME280;4552;43.422;24.592;2023-02-02T07:35:19;100015.09;;;7.73;55.03
9035;BME280;4552;43.422;24.592;2023-02-02T07:37:50;100027.22;;;7.95;55.49
9035;BME280;4552;43.422;24.592;2023-02-02T07:40:19;100033.31;;;7.92;54.30
9035;BME280;4552;43.422;24.592;2023-02-02T07:42:46;100035.00;;;8.19;54.01
9035;BME280;4552;43.422;24.592;2023-02-02T07:45:18;100009.81;;;8.12;53.68
9035;BME280;4552;43.422;24.592;2023-02-02T07:47:53;100020.22;;;8.15;53.63
9035;BME280;4552;43.422;24.592;2023-02-02T07:50:29;100000.22;;;8.21;53.36
9035;BME280;4552;43.422;24.592;2023-02-02T07:53:03;100006.31;;;8.19;52.86
9035;BME280;4552;43.422;24.592;2023-02-02T07:55:33;100015.00;;;8.18;52.65
9035;BME280;4552;43.422;24.592;2023-02-02T07:58:00;100001.97;;;8.19;53.00
9035;BME280;4552;43.422;24.592;2023-02-02T08:00:28;99998.47;;;8.38;52.85
9035;BME280;4552;43.422;24.592;2023-02-02T08:03:15;100002.78;;;8.41;52.17
9035;BME280;4552;43.422;24.592;2023-02-02T08:05:42;99981.88;;;8.53;52.17
9035;BME280;4552;43.422;24.592;2023-02-02T08:08:11;99961.94;;;8.38;51.80
9035;BME280;4552;43.422;24.592;2023-02-02T08:10:48;99992.22;;;8.65;51.90
9035;BME280;4552;43.422;24.592;2023-02-02T08:13:15;99983.50;;;8.72;51.36
9035;BME280;4552;43.422;24.592;2023-02-02T08:15:43;99986.00;;;8.93;51.80
9035;BME280;4552;43.422;24.592;2023-02-02T08:18:11;99975.38;;;9.17;52.17
9035;BME280;4552;43.422;24.592;2023-02-02T08:20:42;99956.19;;;9.23;50.81
9035;BME280;4552;43.422;24.592;2023-02-02T08:23:11;99965.66;;;9.34;49.12
9035;BME280;4552;43.422;24.592;2023-02-02T08:26:05;99937.03;;;9.22;48.58
9035;BME280;4552;43.422;24.592;2023-02-02T08:28:36;99917.66;;;9.49;49.01
9035;BME280;4552;43.422;24.592;2023-02-02T08:31:23;99942.50;;;9.87;48.41
9035;BME280;4552;43.422;24.592;2023-02-02T08:33:51;99902.72;;;9.58;48.05
9035;BME280;4552;43.422;24.592;2023-02-02T08:36:22;99933.03;;;9.77;47.87
9035;BME280;4552;43.422;24.592;2023-02-02T08:38:50;99934.03;;;9.66;47.00
9035;BME280;4552;43.422;24.592;2023-02-02T08:41:20;99935.56;;;9.83;47.07
9035;BME280;4552;43.422;24.592;2023-02-02T08:43:49;99926.97;;;9.74;46.64
9035;BME280;4552;43.422;24.592;2023-02-02T08:46:18;99949.56;;;9.79;46.91
9035;BME280;4552;43.422;24.592;2023-02-02T08:48:46;99936.00;;;9.44;45.76
9035;BME280;4552;43.422;24.592;2023-02-02T08:51:17;99955.16;;;9.42;45.75
9035;BME280;4552;43.422;24.592;2023-02-02T08:53:46;99945.72;;;9.26;46.22
9035;BME280;4552;43.422;24.592;2023-02-02T08:56:16;99935.34;;;9.20;47.15
9035;BME280;4552;43.422;24.592;2023-02-02T08:58:44;99950.00;;;9.31;48.13
9035;BME280;4552;43.422;24.592;2023-02-02T09:01:15;99949.88;;;9.46;48.66
9035;BME280;4552;43.422;24.592;2023-02-02T09:03:57;99933.03;;;9.76;48.70
9035;BME280;4552;43.422;24.592;2023-02-02T09:06:29;99943.06;;;10.16;48.48
9035;BME280;4552;43.422;24.592;2023-02-02T09:08:59;99915.03;;;10.26;47.95
9035;BME280;4552;43.422;24.592;2023-02-02T09:11:26;99909.00;;;10.21;47.25
9035;BME280;4552;43.422;24.592;2023-02-02T09:13:55;99923.59;;;10.40;46.29
9035;BME280;4552;43.422;24.592;2023-02-02T09:16:24;99912.31;;;10.35;46.36
9035;BME280;4552;43.422;24.592;2023-02-02T09:18:53;99932.81;;;10.67;45.64
9035;BME280;4552;43.422;24.592;2023-02-02T09:21:20;99888.53;;;10.50;44.99
9035;BME280;4552;43.422;24.592;2023-02-02T09:23:48;99895.13;;;10.78;44.96
9035;BME280;4552;43.422;24.592;2023-02-02T09:26:19;99892.44;;;10.83;44.97
9035;BME280;4552;43.422;24.592;2023-02-02T09:28:48;99909.81;;;10.87;44.80
9035;BME280;4552;43.422;24.592;2023-02-02T09:31:22;99900.13;;;10.92;43.77
9035;BME280;4552;43.422;24.592;2023-02-02T09:33:50;99891.75;;;10.70;42.80
9035;BME280;4552;43.422;24.592;2023-02-02T09:36:32;99872.06;;;10.45;42.80
9035;BME280;4552;43.422;24.592;2023-02-02T09:39:01;99905.06;;;10.53;43.81
9035;BME280;4552;43.422;24.592;2023-02-02T09:42:02;99864.00;;;10.59;43.49
9035;BME280;4552;43.422;24.592;2023-02-02T09:44:47;99875.34;;;10.61;43.31
9035;BME280;4552;43.422;24.592;2023-02-02T09:47:18;99875.09;;;10.76;43.74
9035;BME280;4552;43.422;24.592;2023-02-02T09:49:53;99871.50;;;10.81;42.48
9035;BME280;4552;43.422;24.592;2023-02-02T09:52:25;99873.34;;;10.75;42.97
9035;BME280;4552;43.422;24.592;2023-02-02T09:54:58;99865.50;;;10.75;41.53
9035;BME280;4552;43.422;24.592;2023-02-02T09:57:32;99871.13;;;11.04;42.22
9035;BME280;4552;43.422;24.592;2023-02-02T10:00:05;99848.47;;;11.03;41.59
9035;BME280;4552;43.422;24.592;2023-02-02T10:02:38;99839.38;;;10.70;41.97
9035;BME280;4552;43.422;24.592;2023-02-02T10:05:14;99861.00;;;10.83;42.10
9035;BME280;4552;43.422;24.592;2023-02-02T10:07:51;99834.06;;;10.76;41.92
9035;BME280;4552;43.422;24.592;2023-02-02T10:10:32;99847.59;;;11.02;42.42
9035;BME280;4552;43.422;24.592;2023-02-02T10:13:06;99872.81;;;11.08;42.64
9035;BME280;4552;43.422;24.592;2023-02-02T10:15:40;99850.06;;;11.10;42.44
9035;BME280;4552;43.422;24.592;2023-02-02T10:18:18;99865.53;;;11.25;41.81
9035;BME280;4552;43.422;24.592;2023-02-02T10:20:52;99857.53;;;11.32;42.44
9035;BME280;4552;43.422;24.592;2023-02-02T10:23:24;99844.09;;;11.03;42.06
9035;BME280;4552;43.422;24.592;2023-02-02T10:26:01;99837.97;;;11.03;42.88
9035;BME280;4552;43.422;24.592;2023-02-02T10:28:52;99851.50;;;11.29;42.57
9035;BME280;4552;43.422;24.592;2023-02-02T10:31:33;99864.25;;;11.47;42.25
9035;BME280;4552;43.422;24.592;2023-02-02T10:34:10;99857.31;;;11.44;43.05
9035;BME280;4552;43.422;24.592;2023-02-02T10:36:53;99856.91;;;11.20;43.12
9035;BME280;4552;43.422;24.592;2023-02-02T10:39:45;99853.16;;;11.33;42.75
9035;BME280;4552;43.422;24.592;2023-02-02T10:42:28;99824.28;;;10.87;42.89
9035;BME280;4552;43.422;24.592;2023-02-02T10:45:18;99852.19;;;10.87;43.20
9035;BME280;4552;43.422;24.592;2023-02-02T10:47:46;99828.41;;;11.02;42.58
9035;BME280;4552;43.422;24.592;2023-02-02T10:50:23;99822.00;;;11.18;42.61
9035;BME280;4552;43.422;24.592;2023-02-02T10:52:55;99822.72;;;11.26;42.69
9035;BME280;4552;43.422;24.592;2023-02-02T10:55:31;99784.38;;;11.20;42.40
9035;BME280;4552;43.422;24.592;2023-02-02T10:58:13;99818.41;;;11.22;42.14
9035;BME280;4552;43.422;24.592;2023-02-02T11:01:11;99787.38;;;11.01;41.92
9035;BME280;4552;43.422;24.592;2023-02-02T11:03:43;99766.25;;;11.10;41.44
9035;BME280;4552;43.422;24.592;2023-02-02T11:06:12;99800.19;;;11.16;42.78
9035;BME280;4552;43.422;24.592;2023-02-02T11:11:41;99815.38;;;10.99;44.18
9035;BME280;4552;43.422;24.592;2023-02-02T11:14:28;99803.50;;;10.78;44.73
9035;BME280;4552;43.422;24.592;2023-02-02T11:17:21;99845.25;;;10.86;44.92
9035;BME280;4552;43.422;24.592;2023-02-02T11:19:49;99811.19;;;10.32;46.46
9035;BME280;4552;43.422;24.592;2023-02-02T11:22:26;99868.09;;;10.15;49.01
9035;BME280;4552;43.422;24.592;2023-02-02T11:25:25;99840.53;;;9.87;50.39
9035;BME280;4552;43.422;24.592;2023-02-02T11:28:21;99857.47;;;9.56;51.68
9035;BME280;4552;43.422;24.592;2023-02-02T11:31:04;99874.44;;;9.15;55.08
9035;BME280;4552;43.422;24.592;2023-02-02T11:33:49;99892.13;;;8.81;57.73
9035;BME280;4552;43.422;24.592;2023-02-02T11:36:20;99897.66;;;8.36;59.93
9035;BME280;4552;43.422;24.592;2023-02-02T11:38:47;99899.50;;;8.01;63.93
9035;BME280;4552;43.422;24.592;2023-02-02T11:41:17;99914.44;;;7.36;71.78
9035;BME280;4552;43.422;24.592;2023-02-02T11:43:48;99923.16;;;7.11;77.58
9035;BME280;4552;43.422;24.592;2023-02-02T11:46:37;99898.84;;;6.68;81.61
9035;BME280;4552;43.422;24.592;2023-02-02T11:52:50;99900.56;;;6.45;87.55
9035;BME280;4552;43.422;24.592;2023-02-02T11:55:24;99917.88;;;6.38;89.53
9035;BME280;4552;43.422;24.592;2023-02-02T11:58:21;99891.75;;;6.04;93.08
9035;BME280;4552;43.422;24.592;2023-02-02T12:01:03;99907.28;;;5.92;94.50
9035;BME280;4552;43.422;24.592;2023-02-02T12:03:47;99888.03;;;5.55;95.50
9035;BME280;4552;43.422;24.592;2023-02-02T12:06:23;99895.03;;;5.65;95.71
9035;BME280;4552;43.422;24.592;2023-02-02T12:09:00;99944.50;;;5.88;95.43
9035;BME280;4552;43.422;24.592;2023-02-02T12:11:37;99933.25;;;5.87;96.07
9035;BME280;4552;43.422;24.592;2023-02-02T12:14:20;99935.06;;;6.03;95.51
9035;BME280;4552;43.422;24.592;2023-02-02T12:16:56;99902.88;;;5.79;95.47
9035;BME280;4552;43.422;24.592;2023-02-02T12:19:51;99915.94;;;5.89;95.47
9035;BME280;4552;43.422;24.592;2023-02-02T12:22:42;99891.72;;;5.99;95.12
9035;BME280;4552;43.422;24.592;2023-02-02T12:25:36;99898.72;;;6.09;93.92
9035;BME280;4552;43.422;24.592;2023-02-02T12:28:34;99906.53;;;6.21;94.02
9035;BME280;4552;43.422;24.592;2023-02-02T12:31:33;99910.00;;;6.14;92.99
9035;BME280;4552;43.422;24.592;2023-02-02T12:34:13;99905.63;;;6.09;93.54
9035;BME280;4552;43.422;24.592;2023-02-02T12:37:15;99936.88;;;6.25;94.54
9035;BME280;4552;43.422;24.592;2023-02-02T12:52:15;99889.06;;;5.83;98.56
9035;BME280;4552;43.422;24.592;2023-02-02T12:55:06;99856.03;;;5.52;99.75
9035;BME280;4552;43.422;24.592;2023-02-02T12:58:03;99872.44;;;5.48;100.00
9035;BME280;4552;43.422;24.592;2023-02-02T13:01:04;99868.13;;;5.48;100.00
9035;BME280;4552;43.422;24.592;2023-02-02T13:03:47;99883.72;;;5.53;99.63
9035;BME280;4552;43.422;24.592;2023-02-02T13:06:51;99888.06;;;5.58;98.00
9035;BME280;4552;43.422;24.592;2023-02-02T13:09:46;99890.63;;;5.52;93.42
9035;BME280;4552;43.422;24.592;2023-02-02T13:12:22;99907.22;;;5.81;92.21
9035;BME280;4552;43.422;24.592;2023-02-02T13:15:05;99904.66;;;5.84;90.26
9035;BME280;4552;43.422;24.592;2023-02-02T13:17:42;99867.31;;;5.67;88.54
9035;BME280;4552;43.422;24.592;2023-02-02T13:20:36;99878.72;;;5.89;84.67
9035;BME280;4552;43.422;24.592;2023-02-02T13:23:16;99897.84;;;6.16;83.22
9035;BME280;4552;43.422;24.592;2023-02-02T13:26:05;99882.25;;;6.13;82.37
9035;BME280;4552;43.422;24.592;2023-02-02T13:28:37;99934.28;;;6.31;82.55
9035;BME280;4552;43.422;24.592;2023-02-02T13:31:13;99924.75;;;6.23;84.71
9035;BME280;4552;43.422;24.592;2023-02-02T13:33:45;99872.66;;;5.87;86.48
9035;BME280;4552;43.422;24.592;2023-02-02T13:36:34;99874.31;;;5.74;88.43
9035;BME280;4552;43.422;24.592;2023-02-02T13:39:18;99877.72;;;5.70;89.47
9035;BME280;4552;43.422;24.592;2023-02-02T13:45:38;99869.06;;;5.65;90.53
9035;BME280;4552;43.422;24.592;2023-02-02T13:48:15;99846.56;;;5.67;89.77
9035;BME280;4552;43.422;24.592;2023-02-02T13:51:01;99811.88;;;5.47;89.13
9035;BME280;4552;43.422;24.592;2023-02-02T13:53:46;99851.72;;;5.61;89.55
9035;BME280;4552;43.422;24.592;2023-02-02T13:56:46;99860.38;;;5.60;89.06
9035;BME280;4552;43.422;24.592;2023-02-02T13:59:38;99886.38;;;5.68;89.48
9035;BME280;4552;43.422;24.592;2023-02-02T14:02:18;99889.88;;;5.71;88.68
9035;BME280;4552;43.422;24.592;2023-02-02T14:04:54;99906.44;;;5.87;87.94
9035;BME280;4552;43.422;24.592;2023-02-02T14:07:37;99896.09;;;6.03;87.26
9035;BME280;4552;43.422;24.592;2023-02-02T14:10:23;99866.44;;;5.59;87.98
9035;BME280;4552;43.422;24.592;2023-02-02T14:13:06;99881.09;;;5.51;89.85
9035;BME280;4552;43.422;24.592;2023-02-02T14:15:59;99900.19;;;5.58;90.61
9035;BME280;4552;43.422;24.592;2023-02-02T14:19:05;99897.66;;;5.70;91.26
9035;BME280;4552;43.422;24.592;2023-02-02T14:22:03;99884.63;;;5.62;91.21
9035;BME280;4552;43.422;24.592;2023-02-02T14:24:55;99882.91;;;5.67;91.58
9035;BME280;4552;43.422;24.592;2023-02-02T14:27:54;99896.88;;;5.84;91.10
9035;BME280;4552;43.422;24.592;2023-02-02T14:30:32;99878.50;;;5.48;92.22
9035;BME280;4552;43.422;24.592;2023-02-02T14:33:41;99920.09;;;5.62;92.81
9035;BME280;4552;43.422;24.592;2023-02-02T15:08:30;99911.97;;;5.12;94.64
9035;BME280;4552;43.422;24.592;2023-02-02T15:11:09;99907.66;;;5.14;94.47
9035;BME280;4552;43.422;24.592;2023-02-02T15:36:11;99920.47;;;4.93;98.10
9035;BME280;4552;43.422;24.592;2023-02-02T15:39:06;99949.03;;;4.99;98.49
9035;BME280;4552;43.422;24.592;2023-02-02T15:41:43;99935.19;;;4.95;98.48